createdAt,value
2019-03-13T00:00:53.785Z,0.80
2019-03-13T00:03:22.214Z,1.00
2019-03-13T00:05:49.915Z,1.20
2019-03-13T00:08:18.196Z,1.17
2019-03-13T00:10:47.893Z,1.30
2019-03-13T00:13:15.900Z,1.40
2019-03-13T00:15:43.843Z,1.43
2019-03-13T00:18:11.656Z,1.50
2019-03-13T00:20:39.290Z,2.00
2019-03-13T00:23:07.265Z,1.87
2019-03-13T00:25:35.219Z,1.80
2019-03-13T00:28:03.047Z,1.60
2019-03-13T00:30:31.152Z,1.47
2019-03-13T00:32:58.722Z,1.47
2019-03-13T00:35:26.344Z,1.17
2019-03-13T00:37:53.782Z,1.13
2019-03-13T00:40:21.277Z,1.27
2019-03-13T00:42:49.186Z,1.57
2019-03-13T00:45:17.362Z,0.93
2019-03-13T00:48:03.050Z,1.30
2019-03-13T00:50:32.212Z,1.10
2019-03-13T00:53:00.041Z,1.73
2019-03-13T00:55:27.804Z,1.47
2019-03-13T00:57:55.733Z,2.30
2019-03-13T01:00:41.772Z,1.90
2019-03-13T01:03:18.914Z,1.70
2019-03-13T01:05:54.021Z,2.20
2019-03-13T01:08:21.852Z,1.77
2019-03-13T01:10:49.668Z,2.10
2019-03-13T01:13:17.337Z,1.97
2019-03-13T01:15:45.138Z,2.53
2019-03-13T01:18:13.129Z,2.83
2019-03-13T01:20:41.207Z,2.67
2019-03-13T01:23:12.164Z,2.10
2019-03-13T01:25:40.068Z,2.20
2019-03-13T01:28:08.207Z,2.43
2019-03-13T01:30:46.090Z,2.40
2019-03-13T01:33:16.041Z,2.30
2019-03-13T01:35:48.394Z,2.57
2019-03-13T01:38:16.477Z,2.93
2019-03-13T01:40:44.364Z,2.90
2019-03-13T01:43:12.107Z,2.63
2019-03-13T01:45:40.204Z,2.77
2019-03-13T01:48:13.773Z,3.20
2019-03-13T01:53:44.942Z,3.10
2019-03-13T01:56:12.833Z,3.07
2019-03-13T01:58:40.654Z,2.60
2019-03-13T02:01:08.435Z,2.40
2019-03-13T02:03:38.466Z,2.50
2019-03-13T02:06:07.533Z,2.57
2019-03-13T02:08:35.415Z,2.30
2019-03-13T02:11:03.299Z,2.40
2019-03-13T02:13:31.050Z,2.53
2019-03-13T02:15:58.551Z,2.23
2019-03-13T02:18:26.776Z,2.50
2019-03-13T02:20:54.322Z,2.70
2019-03-13T02:23:21.847Z,2.90
2019-03-13T02:25:49.714Z,2.70
2019-03-13T02:28:17.614Z,2.57
2019-03-13T02:30:45.394Z,2.67
2019-03-13T02:33:13.250Z,2.87
2019-03-13T02:35:40.963Z,2.93
2019-03-13T02:38:08.775Z,2.77
2019-03-13T02:40:36.738Z,2.43
2019-03-13T02:43:04.237Z,2.77
2019-03-13T02:45:31.966Z,3.13
2019-03-13T02:54:32.203Z,3.13
2019-03-13T02:57:00.406Z,3.13
2019-03-13T02:59:28.515Z,3.27
2019-03-13T03:02:01.990Z,3.60
2019-03-13T03:04:29.869Z,2.93
2019-03-13T03:06:58.113Z,2.97
2019-03-13T03:09:25.921Z,3.17
2019-03-13T03:11:53.916Z,3.23
2019-03-13T03:14:21.610Z,3.80
2019-03-13T03:16:49.056Z,3.43
2019-03-13T03:19:17.008Z,3.47
2019-03-13T03:21:44.740Z,4.80
2019-03-13T03:24:12.519Z,4.63
2019-03-13T03:26:40.212Z,4.10
2019-03-13T03:29:08.512Z,4.10
2019-03-13T03:31:36.360Z,4.40
2019-03-13T03:34:04.541Z,3.87
2019-03-13T03:36:32.333Z,4.50
2019-03-13T03:39:00.162Z,4.23
2019-03-13T03:41:28.132Z,4.90
2019-03-13T03:43:56.032Z,4.67
2019-03-13T03:46:23.824Z,4.50
2019-03-13T03:48:51.913Z,4.53
2019-03-13T03:51:19.783Z,4.50
2019-03-13T03:53:47.365Z,4.30
2019-03-13T03:56:15.420Z,4.17
2019-03-13T03:58:43.397Z,4.77
2019-03-13T04:01:11.256Z,4.40
2019-03-13T04:03:38.990Z,4.60
2019-03-13T04:06:06.961Z,4.27
2019-03-13T04:08:37.684Z,4.60
2019-03-13T04:11:04.245Z,4.57
2019-03-13T04:13:31.697Z,4.63
2019-03-13T04:15:59.526Z,4.70
2019-03-13T04:18:27.229Z,4.50
2019-03-13T04:20:54.634Z,4.50
2019-03-13T04:23:22.459Z,4.47
2019-03-13T04:25:50.196Z,4.40
2019-03-13T04:28:17.891Z,4.47
2019-03-13T04:30:45.353Z,4.97
2019-03-13T04:33:12.882Z,5.23
2019-03-13T04:35:40.607Z,4.47
2019-03-13T04:38:08.574Z,4.93
2019-03-13T04:40:36.404Z,4.67
2019-03-13T04:43:04.246Z,5.53
2019-03-13T04:45:31.972Z,5.10
2019-03-13T04:47:59.998Z,4.90
2019-03-13T04:50:27.631Z,4.83
2019-03-13T04:52:55.870Z,4.53
2019-03-13T04:55:23.292Z,4.97
2019-03-13T04:57:51.145Z,4.60
2019-03-13T05:00:18.780Z,4.43
2019-03-13T05:02:46.298Z,5.63
2019-03-13T05:05:49.921Z,4.93
2019-03-13T05:08:51.286Z,5.77
2019-03-13T05:11:19.002Z,4.83
2019-03-13T05:13:46.919Z,4.70
2019-03-13T05:16:14.882Z,5.50
2019-03-13T05:18:43.946Z,5.87
2019-03-13T05:21:11.556Z,5.70
2019-03-13T05:23:39.564Z,5.80
2019-03-13T05:26:07.934Z,6.10
2019-03-13T05:28:36.727Z,6.03
2019-03-13T05:31:06.713Z,6.00
2019-03-13T05:33:34.873Z,6.10
2019-03-13T05:36:02.587Z,6.90
2019-03-13T05:38:30.336Z,6.30
2019-03-13T05:40:58.162Z,6.93
2019-03-13T05:43:26.023Z,7.67
2019-03-13T05:45:53.856Z,6.53
2019-03-13T05:48:21.808Z,7.67
2019-03-13T05:50:58.695Z,7.10
2019-03-13T05:54:07.051Z,6.80
2019-03-13T05:56:40.605Z,7.10
2019-03-13T05:59:07.219Z,7.23
2019-03-13T06:01:35.023Z,8.93
2019-03-13T06:04:03.263Z,7.17
2019-03-13T06:06:53.418Z,7.70
2019-03-13T06:09:38.964Z,7.50
2019-03-13T06:12:21.893Z,7.03
2019-03-13T06:14:49.681Z,7.40
2019-03-13T06:17:30.501Z,6.43
2019-03-13T06:20:01.646Z,6.77
2019-03-13T06:22:30.924Z,6.33
2019-03-13T06:25:09.003Z,6.30
2019-03-13T06:27:40.457Z,6.90
2019-03-13T06:30:09.843Z,6.53
2019-03-13T06:32:38.454Z,6.93
2019-03-13T06:35:07.268Z,6.47
2019-03-13T06:37:50.064Z,6.50
2019-03-13T06:40:49.834Z,5.83
2019-03-13T06:43:30.135Z,5.77
2019-03-13T06:46:00.307Z,5.33
2019-03-13T06:48:28.450Z,5.00
2019-03-13T06:50:55.963Z,5.57
2019-03-13T06:53:25.310Z,6.30
2019-03-13T06:55:55.543Z,5.00
2019-03-13T06:58:43.118Z,5.20
2019-03-13T07:01:30.414Z,5.50
2019-03-13T07:04:21.039Z,5.50
2019-03-13T07:07:07.999Z,5.20
2019-03-13T07:09:40.887Z,5.73
2019-03-13T07:12:30.735Z,5.33
2019-03-13T07:15:16.379Z,5.40
2019-03-13T07:17:56.131Z,4.87
2019-03-13T07:20:42.162Z,4.73
2019-03-13T07:23:35.707Z,4.77
2019-03-13T07:26:23.446Z,4.87
2019-03-13T07:29:12.082Z,4.73
2019-03-13T07:32:01.280Z,5.50
2019-03-13T07:34:48.955Z,5.77
2019-03-13T07:37:45.465Z,6.27
2019-03-13T07:40:21.487Z,5.17
2019-03-13T07:43:24.419Z,4.80
2019-03-13T07:46:31.685Z,4.67
2019-03-13T07:49:36.129Z,4.50
2019-03-13T07:52:38.585Z,4.53
2019-03-13T07:55:30.840Z,4.90
2019-03-13T07:58:20.709Z,4.23
2019-03-13T08:01:02.384Z,4.80
2019-03-13T08:03:41.649Z,4.87
2019-03-13T08:06:29.954Z,4.43
2019-03-13T08:09:15.896Z,4.67
2019-03-13T08:12:03.756Z,5.60
2019-03-13T08:15:02.496Z,4.93
2019-03-13T08:17:53.084Z,4.17
2019-03-13T08:20:39.563Z,5.50
2019-03-13T08:23:33.773Z,3.73
2019-03-13T08:26:22.917Z,4.70
2019-03-13T08:29:05.166Z,4.63
2019-03-13T08:32:05.878Z,4.70
2019-03-13T08:35:06.112Z,5.17
2019-03-13T08:37:43.613Z,4.23
2019-03-13T08:40:28.882Z,4.57
2019-03-13T08:43:09.562Z,4.50
2019-03-13T08:45:44.060Z,4.20
2019-03-13T08:48:35.167Z,4.83
2019-03-13T08:51:14.195Z,4.50
2019-03-13T08:54:21.908Z,4.90
2019-03-13T08:57:03.961Z,4.40
2019-03-13T08:59:48.155Z,4.43
2019-03-13T09:02:35.097Z,4.17
2019-03-13T09:05:31.236Z,4.27
2019-03-13T09:08:20.783Z,4.33
2019-03-13T09:11:09.427Z,4.80
2019-03-13T09:13:51.655Z,4.63
2019-03-13T09:16:50.895Z,4.50
2019-03-13T09:19:34.075Z,4.27
2019-03-13T09:22:25.121Z,3.97
2019-03-13T09:25:18.066Z,3.80
2019-03-13T09:28:05.992Z,3.83
2019-03-13T09:30:56.785Z,4.77
2019-03-13T09:33:46.116Z,4.47
2019-03-13T09:36:32.520Z,4.47
2019-03-13T09:39:35.417Z,4.20
2019-03-13T09:42:22.486Z,4.23
2019-03-13T09:45:14.946Z,3.60
2019-03-13T09:48:05.182Z,3.77
2019-03-13T09:50:55.776Z,3.87
2019-03-13T09:53:45.601Z,4.20
2019-03-13T09:56:32.859Z,3.77
2019-03-13T09:59:23.800Z,4.27
2019-03-13T10:02:16.808Z,4.50
2019-03-13T10:05:12.269Z,3.97
2019-03-13T10:08:02.811Z,4.00
2019-03-13T10:11:14.642Z,3.33
2019-03-13T10:14:06.384Z,4.13
2019-03-13T10:16:53.642Z,4.20
2019-03-13T10:19:42.917Z,4.50
2019-03-13T10:22:33.525Z,3.97
2019-03-13T10:25:22.268Z,4.13
2019-03-13T10:27:56.178Z,4.03
2019-03-13T10:30:46.716Z,4.03
2019-03-13T10:33:34.958Z,4.60
2019-03-13T10:36:21.612Z,4.40
2019-03-13T10:39:11.441Z,4.10
2019-03-13T10:41:59.053Z,4.03
2019-03-13T10:44:46.707Z,3.40
2019-03-13T10:47:32.954Z,4.10
2019-03-13T10:50:19.650Z,4.00
2019-03-13T10:53:06.614Z,3.73
2019-03-13T10:55:55.453Z,4.10
2019-03-13T10:58:47.862Z,4.03
2019-03-13T11:01:37.061Z,4.00
2019-03-13T11:04:26.769Z,3.30
2019-03-13T11:07:13.355Z,3.90
2019-03-13T11:10:07.639Z,3.43
2019-03-13T11:12:48.356Z,4.07
2019-03-13T11:18:36.955Z,3.63
2019-03-13T11:21:24.429Z,3.87
2019-03-13T11:24:20.997Z,3.60
2019-03-13T11:30:23.540Z,3.43
2019-03-13T11:36:07.014Z,3.50
2019-03-13T11:38:55.356Z,3.67
2019-03-13T11:41:45.767Z,3.43
2019-03-13T11:44:39.497Z,4.20
2019-03-13T11:47:19.997Z,5.23
2019-03-13T11:50:06.072Z,3.87
2019-03-13T11:53:01.764Z,5.23
2019-03-13T11:55:49.439Z,5.10
2019-03-13T11:58:35.813Z,3.67
2019-03-13T12:01:17.858Z,4.77
2019-03-13T12:04:08.530Z,3.17
2019-03-13T12:06:44.238Z,3.13
2019-03-13T12:09:35.051Z,2.60
2019-03-13T12:12:21.130Z,3.20
2019-03-13T12:15:16.004Z,3.33
2019-03-13T12:18:11.488Z,3.00
2019-03-13T12:20:44.713Z,2.33
2019-03-13T12:23:30.213Z,2.60
2019-03-13T12:26:29.946Z,2.70
2019-03-13T12:29:26.083Z,2.33
2019-03-13T12:32:22.904Z,3.00
2019-03-13T12:35:23.460Z,2.47
2019-03-13T12:38:22.624Z,2.03
2019-03-13T12:41:10.539Z,2.17
2019-03-13T12:43:57.027Z,2.33
2019-03-13T12:46:45.959Z,2.67
2019-03-13T12:49:25.368Z,2.57
2019-03-13T12:52:30.151Z,2.43
2019-03-13T12:55:34.502Z,2.17
2019-03-13T12:58:50.929Z,2.30
2019-03-13T13:03:52.888Z,2.30
2019-03-13T13:06:40.042Z,2.50
2019-03-13T13:09:25.917Z,2.33
2019-03-13T13:12:02.777Z,2.63
2019-03-13T13:14:44.875Z,2.27
2019-03-13T13:17:21.551Z,2.90
2019-03-13T13:19:54.335Z,2.90
2019-03-13T13:22:33.663Z,2.30
2019-03-13T13:25:01.466Z,2.90
2019-03-13T13:27:35.689Z,2.93
2019-03-13T13:30:06.571Z,3.10
2019-03-13T13:32:38.265Z,2.50
2019-03-13T13:35:11.635Z,2.40
2019-03-13T13:37:46.793Z,3.03
2019-03-13T13:40:20.050Z,2.30
2019-03-13T13:42:49.700Z,2.70
2019-03-13T13:45:53.769Z,2.40
2019-03-13T13:48:22.367Z,2.00
2019-03-13T13:50:50.965Z,2.67
2019-03-13T13:53:23.089Z,1.93
2019-03-13T13:55:54.939Z,2.07
2019-03-13T13:58:23.020Z,2.20
2019-03-13T14:00:54.115Z,1.70
2019-03-13T14:03:27.518Z,2.07
2019-03-13T14:06:04.626Z,1.93
2019-03-13T14:08:35.157Z,2.30
2019-03-13T14:11:08.170Z,1.67
2019-03-13T14:13:37.577Z,2.30
2019-03-13T14:16:05.976Z,2.00
2019-03-13T14:18:34.032Z,1.90
2019-03-13T14:21:01.779Z,1.80
2019-03-13T14:23:30.262Z,1.60
2019-03-13T14:25:58.037Z,1.43
2019-03-13T14:28:28.564Z,1.67
2019-03-13T14:30:56.999Z,2.63
2019-03-13T14:33:28.110Z,1.90
2019-03-13T14:36:06.419Z,2.20
2019-03-13T14:38:40.180Z,2.23
2019-03-13T14:41:19.105Z,2.57
2019-03-13T14:43:47.239Z,2.00
2019-03-13T14:46:16.093Z,2.17
2019-03-13T14:48:44.217Z,2.40
2019-03-13T14:51:13.880Z,2.20
2019-03-13T14:53:41.841Z,2.10
2019-03-13T14:56:19.227Z,2.13
2019-03-13T14:58:47.401Z,2.40
2019-03-13T15:01:16.035Z,2.03
2019-03-13T15:03:46.537Z,2.57
2019-03-13T15:06:22.314Z,2.70
2019-03-13T15:08:51.305Z,2.50
2019-03-13T15:11:21.987Z,2.47
2019-03-13T15:13:50.219Z,2.60
2019-03-13T15:19:08.019Z,2.30
2019-03-13T15:21:38.684Z,2.77
2019-03-13T15:24:06.798Z,3.30
2019-03-13T15:26:41.855Z,2.70
2019-03-13T15:29:19.987Z,2.47
2019-03-13T15:32:04.111Z,2.53
2019-03-13T15:34:41.608Z,2.70
2019-03-13T15:37:10.323Z,2.10
2019-03-13T15:39:44.156Z,2.17
2019-03-13T15:42:12.849Z,1.90
2019-03-13T15:44:43.923Z,2.47
2019-03-13T15:47:12.195Z,2.70
2019-03-13T15:49:40.045Z,2.83
2019-03-13T15:52:08.202Z,2.77
2019-03-13T15:54:39.149Z,2.63
2019-03-13T15:57:08.243Z,2.67
2019-03-13T15:59:41.920Z,2.50
2019-03-13T16:02:13.467Z,2.90
2019-03-13T16:04:49.983Z,2.60
2019-03-13T16:07:18.561Z,2.63
2019-03-13T16:09:47.071Z,2.50
2019-03-13T16:12:18.406Z,3.27
2019-03-13T16:14:48.626Z,3.20
2019-03-13T16:17:18.458Z,2.63
2019-03-13T16:19:55.011Z,2.23
2019-03-13T16:22:24.051Z,2.00
2019-03-13T16:24:51.957Z,2.07
2019-03-13T16:27:30.961Z,2.57
2019-03-13T16:33:10.744Z,2.93
2019-03-13T16:35:39.074Z,2.10
2019-03-13T16:38:14.436Z,2.50
2019-03-13T16:47:19.862Z,2.90
2019-03-13T16:49:48.297Z,3.53
2019-03-13T16:52:22.600Z,4.30
2019-03-13T17:02:04.492Z,2.23
2019-03-13T17:05:15.894Z,2.40
2019-03-13T17:12:11.838Z,2.23
2019-03-13T17:14:42.675Z,1.50
2019-03-13T17:18:00.685Z,1.50
2019-03-13T17:20:31.894Z,1.00
2019-03-13T17:23:12.410Z,1.27
2019-03-13T17:25:59.075Z,1.07
2019-03-13T17:28:35.879Z,1.77
2019-03-13T17:31:23.871Z,1.23
2019-03-13T17:34:32.022Z,1.20
2019-03-13T17:37:02.960Z,0.97
2019-03-13T17:39:34.001Z,1.43
2019-03-13T17:42:03.446Z,1.70
2019-03-13T17:51:10.273Z,2.80
2019-03-13T17:59:30.221Z,1.93
2019-03-13T18:02:00.323Z,2.30
2019-03-13T18:04:28.347Z,2.17
2019-03-13T18:06:57.297Z,2.30
2019-03-13T18:09:24.738Z,1.87
2019-03-13T18:11:52.781Z,1.97
2019-03-13T18:14:20.781Z,2.23
2019-03-13T18:16:48.662Z,2.00
2019-03-13T18:19:17.908Z,1.97
2019-03-13T18:21:46.106Z,2.00
2019-03-13T18:24:16.749Z,1.60
2019-03-13T18:26:45.158Z,1.33
2019-03-13T18:29:13.510Z,1.80
2019-03-13T18:31:43.141Z,1.80
2019-03-13T18:34:11.151Z,2.10
2019-03-13T18:37:01.722Z,1.80
2019-03-13T18:39:29.444Z,1.60
2019-03-13T18:41:57.607Z,1.70
2019-03-13T18:44:33.765Z,1.70
2019-03-13T18:47:01.235Z,2.30
2019-03-13T21:31:16.504Z,2.87
2019-03-13T21:33:44.187Z,3.03
2019-03-13T21:36:11.963Z,3.37
2019-03-13T21:38:39.588Z,2.97
2019-03-13T21:41:07.602Z,3.87
2019-03-13T21:43:35.538Z,3.43
2019-03-13T21:46:02.888Z,3.60
2019-03-13T21:48:30.963Z,3.57
2019-03-13T21:50:58.620Z,2.70
2019-03-13T21:53:27.664Z,2.83
2019-03-13T21:55:55.985Z,2.93
2019-03-13T21:58:26.446Z,2.93
2019-03-13T22:00:53.956Z,2.37
2019-03-13T22:03:31.022Z,3.07
2019-03-13T22:05:57.397Z,3.33
2019-03-13T22:08:24.914Z,2.30
2019-03-13T22:10:52.572Z,2.60
2019-03-13T22:13:20.725Z,4.70
2019-03-13T22:15:48.681Z,4.03
2019-03-13T22:18:16.301Z,3.77
2019-03-13T22:20:44.037Z,3.20
2019-03-13T22:23:12.189Z,3.60
2019-03-13T22:25:39.888Z,3.73
2019-03-13T22:28:07.700Z,4.50
2019-03-13T22:30:35.626Z,2.67
2019-03-13T22:33:03.851Z,3.30
2019-03-13T22:35:31.733Z,3.07
2019-03-13T22:37:59.435Z,4.03
2019-03-13T22:40:27.477Z,3.47
2019-03-13T22:42:55.806Z,3.37
2019-03-13T22:45:23.636Z,3.70
2019-03-13T22:47:52.533Z,4.07
2019-03-13T22:50:20.300Z,3.63
2019-03-13T22:52:50.327Z,3.80
2019-03-13T22:55:17.989Z,3.80
2019-03-13T22:57:45.555Z,4.20
2019-03-13T23:00:27.694Z,4.23
2019-03-13T23:02:55.758Z,3.93
2019-03-13T23:05:23.233Z,4.10
2019-03-13T23:07:50.974Z,4.13
2019-03-13T23:10:27.641Z,4.93
2019-03-13T23:12:55.660Z,4.07
2019-03-13T23:15:23.559Z,4.40
2019-03-13T23:17:51.041Z,4.77
2019-03-13T23:20:18.720Z,5.13
2019-03-13T23:22:46.531Z,5.03
2019-03-13T23:25:16.441Z,4.13
2019-03-13T23:27:44.073Z,4.80
2019-03-13T23:30:11.739Z,4.70
2019-03-13T23:32:39.529Z,4.33
2019-03-13T23:35:07.094Z,3.67
2019-03-13T23:37:37.200Z,4.30
2019-03-13T23:40:04.644Z,5.13
2019-03-13T23:42:32.294Z,4.30
2019-03-13T23:45:00.126Z,3.93
2019-03-13T23:47:27.871Z,4.50
2019-03-13T23:49:55.637Z,3.93
2019-03-13T23:52:25.760Z,4.03
2019-03-13T23:54:52.559Z,4.70
2019-03-13T23:57:20.238Z,4.30
2019-03-13T23:59:48.000Z,4.63
